Weather observations for the past three days for
Greater Kankakee Airport
Metric (Imperial)
Date Time (cdt) Wind (kph) Vis. (km) Weather Sky Cond. Temperature (ºC) Relative Humidity Wind Chill (°C) Heat Index (°C) Pressure Precipitation (cm)
Air Dwpt 6 hour altimeter (cm) sea level (mb) 1 hr 3 hr 6 hr
Max. Min.
06 04:15 N 17 16.09 Fair CLR 7.3 0.3 61% 5 75.9 0.0
06 03:55 N 15 16.09 Fair CLR 7.2 0.3 62% 5 75.87 0.0
06 03:35 N 11 16.09 Fair CLR 7 0.6 64% 5 75.87 0.0
06 03:15 N 11 16.09 Fair CLR 7.2 1.1 66% 5 75.84 0.0
06 02:55 NW 9 16.09 Fair CLR 7.6 1.5 66% 6 75.84 0.0
06 02:35 NW 13 16.09 Fair CLR 7.8 1.8 66% 6 75.82 0.0
06 02:15 NW 9 16.09 Fair CLR 8.2 2.2 66% 7 75.79 0.0
06 01:55 NW 9 16.09 Fair CLR 8 3 71% 7 75.79 0.0
06 01:35 W 9 16.09 Mostly Cloudy BKN110 8.8 3 67% 8 75.79 0.0
06 01:15 W 9 16.09 Mostly Cloudy BKN110 8.7 3.9 72% 7 75.82 0.0
06 00:55 W 11 16.09 Partly Cloudy SCT110 9 3.9 11.6 9 71% 8 75.82 0.0
06 00:35 W 9 16.09 Partly Cloudy SCT110 9.1 3.5 68% 8 75.82 0.0
06 00:15 W 7 16.09 Mostly Cloudy SCT100 BKN120 9.2 4.6 73% 8 75.82 0.0
05 23:55 Calm 16.09 Overcast OVC100 9.4 3.8 68% 75.79 0.0
05 23:35 W 6 16.09 Overcast BKN080 OVC100 9.8 3 63% 75.82 0.0
05 23:15 W 6 16.09 Overcast SCT080 OVC100 9.8 3 63% 75.82 0.0
05 22:55 W 7 16.09 Overcast OVC090 10.2 1.8 56% 75.82 0.0
05 22:35 W 9 16.09 Overcast OVC080 10.5 1 52% 75.84 0.0
05 22:15 W 7 16.09 Mostly Cloudy BKN080 BKN100 10.3 1.2 54% 75.82 0.0
05 21:55 NW 7 16.09 Overcast SCT080 OVC100 10.6 0.5 50% 75.79 0.0
05 21:35 W 9 16.09 Overcast OVC090 10.6 0.5 50% 75.79 0.0
05 21:15 NW 7 16.09 Overcast OVC090 10.6 1.6 54% 75.77 0.0
05 20:55 NW 6 16.09 Overcast OVC090 10.7 1.1 52% 75.74 0.0
05 20:35 NW 7 16.09 Overcast OVC090 11 0.4 48% 75.74 0.0
05 20:15 NW 6 16.09 Overcast BKN090 OVC110 11.1 0.7 49% 75.72 0.0
05 19:55 NW 7 16.09 Overcast OVC090 11.1 0.8 49% 75.72 0.0
05 19:35 NW 7 16.09 Overcast OVC090 11.4 0.6 48% 75.72 0.0
05 19:15 W 7 16.09 Overcast OVC090 11.4 1.1 49% 75.72 0.0
05 18:55 NW 11 16.09 Overcast OVC090 11.6 0.3 13.3 11.6 46% 75.69 0.0
05 18:35 NW 9 G 30 16.09 Mostly Cloudy BKN090 11.8 0.4 46% 75.67 0.0
05 18:15 NW 19 G 30 16.09 Mostly Cloudy BKN090 12.1 0.4 45% 75.69 0.0
05 17:55 NW 24 G 30 16.09 Overcast OVC090 12.1 0 44% 75.69 0.0
05 17:35 NW 13 16.09 Light Rain OVC080 12 0.3 45% 75.72 0.0
05 17:15 NW 13 16.09 Overcast SCT038 BKN085 OVC090 12.2 0.6 45% 75.72 0.0
05 16:55 NW 20 G 28 16.09 Light Rain SCT038 SCT055 OVC085 12 1 47% 75.74 0.0
05 16:35 W 11 16.09 Light Rain SCT042 BKN065 OVC085 11.9 3.3 56% 75.74 0.0
05 16:15 W 13 16.09 Light Rain SCT060 OVC070 11.7 2.5 54% 75.74 0.0
05 15:55 W 11 16.09 Light Rain OVC080 11.8 2.3 52% 75.77 0.0
05 15:35 W 11 16.09 Light Rain OVC090 12.1 1.4 48% 75.79 0.0
05 15:15 NW 15 16.09 Mostly Cloudy BKN090 12.3 0.9 46% 75.79 0.0
05 14:55 W 15 16.09 Partly Cloudy SCT100 12.5 1.4 47% 75.77 0.0
05 14:35 NW 28 G 41 16.09 Fair CLR 12.5 1.9 49% 75.77 0.0
05 14:15 N 19 16.09 Partly Cloudy SCT042 SCT120 12.6 1.9 48% 75.77 0.0
05 13:55 NW 20 G 30 16.09 Partly Cloudy SCT042 13.1 2.4 49% 75.77 0.0
05 13:35 W 11 16.09 Partly Cloudy SCT037 13 4 55% 75.77 0.0
05 13:15 W 11 16.09 Partly Cloudy SCT037 SCT095 13 4 55% 75.77 0.0
05 12:55 W 6 16.09 Partly Cloudy SCT032 SCT095 13.3 4.5 13.3 8.6 55% 75.77 0.0
05 12:35 NW 15 16.09 Partly Cloudy SCT032 12.7 4.5 58% 75.77 0.0
05 11:55 NW 11 16.09 Partly Cloudy SCT090 11.8 4.4 61% 75.77 0.0
05 11:35 N 9 16.09 Mostly Cloudy BKN090 11.5 4.6 63% 75.77 0.0
05 11:15 N 7 16.09 Mostly Cloudy BKN080 11.1 5.4 68% 75.77 0.0
05 10:55 NW 15 16.09 Mostly Cloudy SCT015 BKN090 10.6 5.9 73% 75.77 0.0
05 10:35 N 15 16.09 Overcast SCT015 OVC090 9.6 5.7 77% 8 75.74 0.0
05 10:15 N 11 16.09 Overcast SCT015 OVC090 9.4 6.2 81% 8 75.77 0.0
05 09:55 Calm 16.09 Overcast OVC090 8.9 5.4 79% 75.74 0.0
05 09:35 N 13 16.09 Light Rain SCT050 BKN080 OVC090 8.7 5.7 82% 7 75.74 0.0
05 09:15 N 17 16.09 Light Rain SCT045 BKN080 OVC085 8.7 5.1 78% 6 75.74 0.0
05 08:35 N 7 16.09 Light Rain OVC080 9.5 5.2 75% 9 75.77 0.0
05 08:15 NW 11 16.09 Light Rain OVC075 10.1 4.5 68% 75.79 0.0
05 07:35 N 13 16.09 Overcast OVC090 10.6 3.4 61% 75.67 0.0
05 07:15 NW 19 G 26 16.09 Overcast OVC090 10.6 4.1 64% 75.64 0.0
05 06:55 NW 17 16.09 Overcast OVC090 10.8 4.4 14 10.8 65% 75.59 0.0
05 06:15 NW 9 16.09 Overcast OVC110 11 4.9 66% 75.51 0.0
05 05:55 N 15 16.09 Mostly Cloudy BKN100 BKN120 11.2 4.8 65% 75.44 0.0
05 05:35 NW 15 16.09 Overcast SCT080 OVC100 11.5 5.6 67% 75.54 0.0
05 05:15 NW 9 16.09 Overcast SCT080 OVC090 11.5 6 69% 75.49 0.0
05 04:55 W 13 16.09 Light Rain OVC090 11.8 6.2 69% 75.54 0.0
05 04:35 W 15 16.09 Overcast OVC090 12.5 5 61% 75.54 0.0
05 04:15 W 15 16.09 Overcast OVC090 12.6 5.7 63% 75.51 0.0
05 03:55 W 13 16.09 Overcast OVC090 12.9 5.8 62% 75.46 0.0
05 03:35 W 13 16.09 Overcast OVC080 12.8 7.1 69% 75.41 0.0
05 03:15 SW 11 16.09 Overcast OVC080 13.4 8.3 71% 75.41 0.0
05 02:55 W 11 16.09 Overcast OVC070 13.9 7.7 66% 75.39 0.0
05 02:35 W 9 16.09 Overcast OVC070 13 8.2 73% 75.36 0.0
05 02:15 W 7 16.09 Mostly Cloudy BKN070 13.5 8.1 70% 75.34 0.0
05 01:55 W 9 16.09 Fair CLR 13 9.7 81% 75.31 0.0
05 01:35 SW 7 16.09 Thunderstorm in Vicinity CLR 13.9 10.8 82% 75.29 0.0
05 01:15 S 13 16.09 Fair CLR 13.4 11.2 87% 75.29 0.0
05 00:55 SW 6 16.09 Fair CLR 13.9 11.6 23.5 13.6 86% 75.23 0.0 0.38
05 00:35 Calm 16.09 Thunderstorm in Vicinity CLR 14.1 11.6 85% 75.23 0.0
05 00:15 W 9 16.09 Fair CLR 13.8 11.5 86% 75.23 0.0
04 23:55 W 13 16.09 Fair CLR 15 10.9 77% 75.23 0.0
04 23:35 W 9 16.09 Thunderstorm in Vicinity CLR 15.6 10.3 71% 75.21 0.0
04 23:15 W 17 16.09 Partly Cloudy SCT080 SCT110 15.7 10.6 72% 75.16 0.0
04 22:55 SW 20 16.09 Light Rain BKN080 OVC100 15.3 10.4 73% 75.16 0.0 0.1
04 22:35 SW 28 G 37 16.09 Thunderstorm Light Rain in Vicinity OVC090 14.4 10.8 79% 75.23 0.0 0.08
04 22:15 W 30 G 57 16.09 Thunderstorm Light Rain SCT055 OVC080 14.9 11.7 81% 75.29 0.0 0.05
04 21:55 S 9 16.09 Thunderstorm Light Rain in Vicinity SCT050 SCT065 OVC090 14 12 88% 75.16 0.0 0.25 0.28
04 21:35 SW 9 G 15 16.09 Thunderstorm Light Rain SCT041 BKN065 OVC090 14.7 12 84% 75.23 0.0 0.23
04 21:15 Calm 16.09 Thunderstorm Light Rain OVC055 15 11.8 81% 75.21 0.0
04 20:55 NW 19 16.09 Thunderstorm Light Rain BKN055 BKN065 OVC100 15.4 11.4 77% 75.23 0.0 0.03
04 20:35 NW 19 G 43 16.09 Rain BKN055 BKN080 OVC110 15.3 11 76% 75.23 0.0 0.03
04 20:15 W 52 G 65 16.09 Thunderstorm and Windy SCT055 SCT065 BKN110 22.2 10.7 48% 75.23 0.0
04 19:55 SW 35 G 44 16.09 Partly Cloudy and Breezy SCT120 22.7 10.7 47% 75.08 0.0
04 19:35 SW 37 G 43 16.09 Fair and Breezy CLR 22.8 10.7 46% 75.03 0.0
04 19:15 SW 37 G 57 16.09 Fair and Breezy CLR 23.2 10.8 46% 75.01 0.0
04 18:55 SW 35 G 50 16.09 Fair and Breezy CLR 23.5 10.5 26.1 23.5 44% 75.01 0.0
04 18:35 SW 43 G 63 16.09 Partly Cloudy and Windy SCT036 SCT043 24.5 10.2 41% 25 74.98 0.0
04 18:15 SW 35 G 56 11.27 Partly Cloudy and Breezy SCT036 SCT043 24 10 41% 25 74.96 0.0
04 17:55 SW 56 G 67 16.09 Fair and Windy CLR 25 9.7 38% 26 75.01 0.0
04 17:35 SW 39 G 65 11.27 Mostly Cloudy and Breezy SCT028 BKN036 BKN043 25 9.7 38% 26 75.01 0.0
04 17:15 SW 48 G 65 11.27 Mostly Cloudy and Windy SCT028 BKN036 BKN043 25.1 9.8 38% 26 75.03 0.0
04 16:55 SW 48 G 65 11.27 Mostly Cloudy and Windy SCT033 SCT043 BKN070 25.2 9.9 38% 26 75.06 0.0
04 16:35 SW 35 G 54 16.09 Partly Cloudy and Breezy SCT070 25.5 9.9 37% 26 75.06 0.0
04 16:15 SW 41 G 61 16.09 Mostly Cloudy and Breezy BKN070 BKN090 25.8 10 37% 26 75.11 0.0
04 15:55 SW 46 G 56 16.09 Partly Cloudy and Windy SCT060 SCT075 25.4 10.2 38% 26 75.11 0.0
04 15:35 SW 41 G 57 16.09 Fair and Breezy CLR 25.3 11.3 42% 26 75.11 0.0
04 15:15 SW 41 G 57 16.09 Fair and Breezy CLR 24.7 10.9 42% 26 75.13 0.0
04 14:55 SW 35 G 56 16.09 Fair and Breezy CLR 25.5 10.2 38% 26 75.11 0.0
04 14:35 SW 37 G 56 16.09 Fair and Breezy CLR 25.2 9.8 38% 26 75.13 0.0
04 14:15 SW 41 G 57 16.09 Fair and Breezy CLR 25.5 9.1 35% 26 75.13 0.0
04 13:55 SW 44 G 54 16.09 Fair and Windy CLR 25.5 8.9 35% 26 75.16 0.0
04 13:35 SW 39 G 52 16.09 Fair and Breezy CLR 25.7 8.9 35% 26 75.16 0.0
04 13:15 SW 41 G 54 16.09 Fair and Breezy CLR 25.8 9 35% 26 75.16 0.0
04 12:55 SW 43 G 54 16.09 Partly Cloudy and Windy SCT065 25.4 8.3 25.9 9.6 34% 26 75.16 0.0
04 12:35 SW 37 G 52 16.09 Partly Cloudy and Breezy SCT065 25.7 8.7 34% 26 75.18 0.0
04 12:15 SW 37 G 50 16.09 Partly Cloudy and Breezy SCT065 24.5 9.4 38% 25 75.18 0.0
04 11:55 SW 39 G 48 16.09 Fair and Breezy CLR 24.4 10 40% 25 75.21 0.0
04 11:35 SW 33 G 43 16.09 Fair and Breezy CLR 23.7 10.3 43% 75.23 0.0
04 11:15 SW 26 G 41 16.09 Fair CLR 22.8 10.5 46% 75.23 0.0
04 10:55 SW 30 G 39 16.09 Fair CLR 22.3 10.5 47% 75.23 0.0
04 10:35 SW 24 G 39 16.09 Fair CLR 21.7 10.3 48% 75.26 0.0
04 10:15 SW 26 G 37 16.09 Fair CLR 21.2 10.3 50% 75.29 0.0
04 09:55 SW 26 G 41 16.09 Fair CLR 20.5 9.8 50% 75.31 0.0
04 09:35 SW 28 G 37 16.09 Fair CLR 19.9 9.7 52% 75.34 0.0
04 09:15 SW 20 16.09 Fair CLR 18.7 9.5 55% 75.36 0.0
04 08:55 SW 24 G 33 16.09 Fair CLR 17.8 9.4 58% 75.39 0.0
04 08:35 SW 15 16.09 Fair CLR 16 9.4 65% 75.41 0.0
04 08:15 SW 15 16.09 Fair CLR 15.1 8.7 66% 75.41 0.0
04 07:55 S 9 16.09 Fair CLR 13.8 8.6 71% 75.41 0.0
04 07:35 SW 9 16.09 Fair CLR 11.7 7.8 77% 75.44 0.0
04 07:15 S 7 16.09 Fair CLR 10.6 8 84% 75.44 0.0
04 06:55 S 7 16.09 Fair CLR 9.5 7.6 11.6 7.5 88% 9 75.44 0.0
04 06:35 Calm 16.09 Fair CLR 8.8 7.2 90% 75.44 0.0
04 06:15 Calm 16.09 Fair CLR 8.4 6.9 90% 75.44 0.0
04 05:55 NW 9 16.09 Fair CLR 9 7.1 88% 8 75.44 0.0
04 05:35 SW 6 16.09 Fair CLR 7.9 7.1 95% 75.44 0.0
04 05:15 Calm 16.09 Fair CLR 9.5 6.9 84% 75.44 0.0
04 04:55 SW 11 16.09 Fair CLR 9.6 7 84% 8 75.46 0.0
04 04:35 SW 13 16.09 Fair CLR 9.7 7 83% 8 75.46 0.0
04 04:15 SW 15 16.09 Fair CLR 10 7 82% 8 75.49 0.0
04 03:55 SW 15 16.09 Fair CLR 10 7 82% 8 75.49 0.0
04 03:35 SW 11 16.09 Fair CLR 9.7 6.7 82% 8 75.46 0.0
04 03:15 S 6 16.09 Fair CLR 9.6 6.5 81% 75.46 0.0
04 02:55 SW 11 16.09 Fair CLR 10.3 6.7 79% 75.46 0.0
04 02:35 SW 15 16.09 Fair CLR 10.6 6.6 77% 75.49 0.0
04 02:15 SW 15 16.09 Fair CLR 10.8 6.6 76% 75.49 0.0
04 01:55 SW 15 16.09 Fair CLR 11 6.5 74% 75.51 0.0
04 01:35 SW 13 16.09 Fair CLR 11 6.4 74% 75.51 0.0
04 01:15 SW 9 16.09 Fair CLR 11.3 6.3 72% 75.54 0.0
04 00:55 SW 11 16.09 Fair CLR 11.6 6.3 19 10.7 70% 75.57 0.0
04 00:35 S 11 16.09 Fair CLR 11.1 6.2 72% 75.57 0.0
04 00:15 S 13 16.09 Fair CLR 11.6 6.2 70% 75.59 0.0
03 23:55 S 13 16.09 Fair CLR 10.9 6.1 73% 75.59 0.0
03 23:35 S 9 16.09 Fair CLR 11.9 6.1 68% 75.59 0.0
03 23:15 S 11 16.09 Fair CLR 12 6 67% 75.59 0.0
03 22:55 S 11 16.09 Fair CLR 12.5 6 65% 75.62 0.0
03 22:35 S 11 16.09 Fair CLR 12.5 6 65% 75.62 0.0
03 22:15 S 11 16.09 Fair CLR 13 5.9 62% 75.64 0.0
03 21:55 S 11 16.09 Fair CLR 13.3 6 62% 75.64 0.0
03 21:35 S 11 16.09 Fair CLR 12.9 5.9 63% 75.62 0.0
03 21:15 S 11 16.09 Fair CLR 13.9 5.8 58% 75.62 0.0
03 20:55 S 11 16.09 Fair CLR 14 5.6 57% 75.62 0.0
03 20:35 S 7 16.09 Fair CLR 15.1 5 51% 75.62 0.0
03 20:15 SW 9 16.09 Fair CLR 16.2 4.8 47% 75.62 0.0
03 19:55 SW 11 16.09 Fair CLR 16.6 5 46% 75.62 0.0
03 19:35 SW 19 16.09 Fair CLR 17.7 4.9 43% 75.62 0.0
03 19:15 SW 24 16.09 Partly Cloudy SCT065 18.5 4.6 40% 75.62 0.0
03 18:55 SW 28 G 37 16.09 Mostly Cloudy BKN065 19 4.6 19 15 39% 75.62 0.0
03 18:35 SW 30 G 35 16.09 Overcast OVC065 18.5 4.5 40% 75.64 0.0
03 18:15 SW 20 G 31 16.09 Overcast OVC065 17.8 4.6 42% 75.64 0.0
03 17:55 SW 22 G 35 16.09 Overcast OVC065 17.7 4.5 42% 75.67 0.0
03 17:35 SW 26 G 39 16.09 Overcast OVC065 17.7 4.2 41% 75.67 0.0
03 17:15 SW 33 G 41 16.09 Overcast and Breezy OVC065 17.5 4.2 42% 75.67 0.0
03 16:55 SW 26 G 46 16.09 Overcast OVC065 17.8 3.8 40% 75.69 0.0
03 16:35 SW 26 G 46 16.09 Mostly Cloudy BKN075 17.5 3.4 39% 75.69 0.0
03 16:15 SW 33 G 43 16.09 Overcast and Breezy OVC075 17.9 3.6 39% 75.74 0.0
03 15:55 SW 31 G 52 16.09 Mostly Cloudy BKN075 BKN110 17.7 2.6 37% 75.74 0.0
03 15:35 SW 24 G 48 16.09 Mostly Cloudy BKN075 17.9 3.2 38% 75.74 0.0
03 15:15 SW 35 G 50 16.09 Overcast and Breezy OVC085 17 1.4 35% 75.79 0.0
03 14:55 S 31 G 50 16.09 Overcast OVC085 17 1.8 36% 75.82 0.0
03 14:35 S 35 G 50 16.09 Overcast and Breezy OVC085 17 2 37% 75.82 0.0
03 14:15 S 37 G 52 16.09 Overcast and Breezy OVC085 16.5 1.9 38% 75.87 0.0
03 13:55 SW 33 G 43 16.09 Overcast and Breezy OVC085 16.6 2.6 39% 75.87 0.0
03 13:35 S 24 G 35 16.09 Overcast OVC085 16 2.9 42% 75.92 0.0
03 13:15 SW 28 G 43 16.09 Overcast OVC085 15.1 1.5 40% 75.97 0.0
03 12:55 SW 28 G 37 16.09 Mostly Cloudy SCT045 SCT055 BKN085 15 3.3 15 7.5 46% 76.02 0.0
03 12:35 SW 22 G 43 16.09 Light Rain SCT044 OVC060 13 3.1 51% 76.1 0.0
03 12:15 S 13 16.09 Overcast BKN060 OVC075 12.6 4.5 58% 76.1 0.0
03 11:55 S 13 16.09 Overcast SCT048 BKN070 OVC080 12.6 3.9 56% 76.1 0.0
03 11:35 SW 11 G 30 16.09 Light Rain BKN050 OVC065 12.2 3.5 56% 76.12 0.0
03 11:15 SW 19 16.09 Overcast SCT040 BKN050 OVC060 12 4.3 60% 76.17 0.0
03 10:55 SW 17 16.09 Light Rain SCT048 BKN060 OVC065 11.9 4.6 61% 76.2 0.0
03 10:35 SW 20 16.09 Light Rain BKN048 BKN050 OVC070 11.8 4.4 61% 76.23 0.0
03 10:15 SW 33 G 41 16.09 Mostly Cloudy and Breezy SCT070 BKN080 12.4 2.8 52% 76.2 0.0
03 09:55 SW 39 G 50 16.09 Mostly Cloudy and Breezy SCT070 BKN090 12.5 2.7 52% 76.17 0.0
03 09:35 SW 28 G 44 16.09 Mostly Cloudy SCT075 BKN090 12.2 2.3 51% 76.2 0.0
03 09:15 SW 24 G 44 16.09 Partly Cloudy SCT100 12 1.7 50% 76.23 0.0
03 08:55 SW 33 G 44 16.09 Fair and Breezy CLR 12 1.5 49% 76.23 0.0
03 08:35 SW 26 G 39 16.09 Fair CLR 11.5 1.7 51% 76.25 0.0
03 08:15 SW 24 G 33 16.09 Fair CLR 11 1.8 53% 76.25 0.0
03 07:55 SW 22 G 33 16.09 Fair CLR 10 1.5 56% 7 76.25 0.0
03 07:35 SW 20 16.09 Fair CLR 8.4 1 60% 6 76.25 0.0
03 07:15 SW 20 G 31 16.09 Fair CLR 7.8 0.4 60% 5 76.25 0.0
03 06:55 SW 22 G 30 16.09 Fair CLR 7.5 0.1 7.5 6 60% 4 76.25 0.0
03 06:35 SW 20 16.09 Fair CLR 6.9 0 62% 4 76.23 0.0
03 06:15 SW 19 16.09 Fair CLR 6.5 -0.5 61% 3 76.23 0.0
03 05:55 SW 15 16.09 Fair CLR 6.1 -0.7 62% 3 76.23 0.0
03 05:35 SW 17 G 26 16.09 Fair CLR 6.5 -1.1 59% 4 76.23 0.0
03 05:15 SW 15 16.09 Fair CLR 6.2 -1.2 59% 4 76.23 0.0
03 04:55 SW 17 16.09 Fair CLR 6.2 -1.2 59% 3 76.25 0.0
Date Time (cdt) Wind (kph) Vis. (km) Weather Sky Cond. Air Dwpt Max. Min. Relative Humidity Wind Chill (°C) Heat Index (°C) altimeter (cm) sea level (mb) 1 hr 3 hr 6 hr
6 hour
Temperature (ºC) Pressure Precipitation (cm)